Time;durP1;ratioP1;P1;durP2;ratioP2;P2;SDS_P1;SDS_P2;PMS_P1;PMS_P2;Temp;Humidity;BMP_temperature;BMP_pressure;BME280_temperature;BME280_humidity;BME280_pressure;Samples;Min_cycle;Max_cycle;Signal;HPM_P1;HPM_P2
2023/01/17 00:00:33;;;;;;;;;;;;;;;3.26;100.00;98300.97;5046902;28;19939;-63
2023/01/17 00:02:58;;;;;;;;;;;;;;;3.27;100.00;98299.06;5048486;28;20151;-61
2023/01/17 00:10:54;;;;;;;;;;;;;;;2.90;100.00;98323.91;5046635;28;19967;-61
2023/01/17 00:13:19;;;;;;;;;;;;;;;2.85;100.00;98334.66;5048794;28;19921;-60
2023/01/17 00:15:44;;;;;;;;;;;;;;;2.75;100.00;98338.00;5047518;28;20272;-61
2023/01/17 00:18:10;;;;;;;;;;;;;;;2.62;100.00;98343.69;5048430;28;19916;-62
2023/01/17 00:26:11;;;;;;;;;;;;;;;2.40;100.00;98367.91;5049119;28;20018;-60
2023/01/17 01:35:15;;;;;;;;;;;;;;;1.89;100.00;98458.81;5047737;28;19923;-61
2023/01/17 01:37:40;;;;;;;;;;;;;;;1.91;100.00;98464.81;5046828;28;20015;-60
2023/01/17 01:40:06;;;;;;;;;;;;;;;1.89;100.00;98472.34;5047127;28;19925;-60
2023/01/17 01:42:31;;;;;;;;;;;;;;;2.01;100.00;98478.59;5047049;28;20313;-62
2023/01/17 01:44:56;;;;;;;;;;;;;;;1.92;100.00;98482.69;5046706;28;19944;-60
2023/01/17 01:47:29;;;;;;;;;;;;;;;1.97;100.00;98479.28;5047197;28;19917;-60
2023/01/17 01:49:57;;;;;;;;;;;;;;;2.09;100.00;98482.84;5046193;28;20320;-60
2023/01/17 01:52:25;;;;;;;;;;;;;;;1.96;100.00;98494.69;5046831;28;20008;-64
2023/01/17 01:54:50;;;;;;;;;;;;;;;1.94;100.00;98499.53;5046138;28;20007;-62
2023/01/17 01:57:17;;;;;;;;;;;;;;;1.93;100.00;98494.38;5044705;28;20019;-62
2023/01/17 01:59:50;;;;;;;;;;;;;;;2.10;100.00;98513.44;5049009;28;19943;-59
2023/01/17 02:02:15;;;;;;;;;;;;;;;1.85;100.00;98509.03;5051150;28;19924;-60
2023/01/17 02:04:41;;;;;;;;;;;;;;;1.96;100.00;98508.25;5050630;28;19924;-60
2023/01/17 02:07:10;;;;;;;;;;;;;;;1.77;100.00;98512.94;5051037;28;19921;-62
2023/01/17 02:09:35;;;;;;;;;;;;;;;1.69;100.00;98505.13;5096618;22;19912;-61
2023/01/17 02:12:01;;;;;;;;;;;;;;;1.73;100.00;98516.31;5061364;28;19920;-58
2023/01/17 02:14:26;;;;;;;;;;;;;;;1.73;100.00;98521.72;5067166;28;20370;-58
2023/01/17 02:16:59;;;;;;;;;;;;;;;2.10;100.00;98522.41;5069220;28;19931;-61
2023/01/17 02:19:24;;;;;;;;;;;;;;;1.74;100.00;98528.78;5070291;28;20412;-60
2023/01/17 02:22:11;;;;;;;;;;;;;;;1.73;100.00;98527.16;5070251;28;19920;-57
2023/01/17 02:24:48;;;;;;;;;;;;;;;1.78;100.00;98533.50;5069665;28;20271;-58
2023/01/17 02:27:28;;;;;;;;;;;;;;;1.81;100.00;98545.75;5070062;28;19931;-58
2023/01/17 02:30:15;;;;;;;;;;;;;;;1.84;100.00;98547.19;5068841;28;20019;-61
2023/01/17 02:33:02;;;;;;;;;;;;;;;1.80;100.00;98544.91;5056810;28;20523;-58
2023/01/17 02:35:31;;;;;;;;;;;;;;;1.63;100.00;98538.50;5060162;28;19920;-58
2023/01/17 02:38:02;;;;;;;;;;;;;;;1.71;100.00;98531.94;5069015;28;19988;-58
2023/01/17 02:40:43;;;;;;;;;;;;;;;1.53;100.00;98517.41;5069806;28;19917;-58
2023/01/17 02:43:11;;;;;;;;;;;;;;;1.53;100.00;98522.84;5068779;28;19947;-58
2023/01/17 02:45:37;;;;;;;;;;;;;;;1.55;100.00;98528.81;5069406;28;19913;-60
2023/01/17 02:48:02;;;;;;;;;;;;;;;1.46;100.00;98524.78;5069788;28;19955;-59
2023/01/17 02:51:00;;;;;;;;;;;;;;;1.54;100.00;98524.47;5068584;28;19925;-59
2023/01/17 02:53:31;;;;;;;;;;;;;;;1.53;100.00;98528.25;5056577;28;19916;-58
2023/01/17 02:56:04;;;;;;;;;;;;;;;1.58;100.00;98527.56;5068341;28;19925;-58
2023/01/17 02:58:53;;;;;;;;;;;;;;;1.41;100.00;98532.75;5068746;28;20090;-59
2023/01/17 03:01:28;;;;;;;;;;;;;;;1.51;100.00;98534.91;5067260;28;19927;-58
2023/01/17 03:03:58;;;;;;;;;;;;;;;1.35;100.00;98540.97;5068312;28;19913;-59
2023/01/17 03:06:23;;;;;;;;;;;;;;;1.26;100.00;98535.84;5069296;28;20293;-58
2023/01/17 03:08:50;;;;;;;;;;;;;;;1.29;100.00;98546.22;5068695;28;19920;-59
2023/01/17 03:11:15;;;;;;;;;;;;;;;1.10;100.00;98547.28;5068636;28;19927;-59
2023/01/17 03:13:41;;;;;;;;;;;;;;;1.12;100.00;98552.50;5067101;28;19916;-60
2023/01/17 03:16:26;;;;;;;;;;;;;;;0.93;100.00;98560.59;5068535;28;20386;-60
2023/01/17 03:18:52;;;;;;;;;;;;;;;1.02;100.00;98567.38;5067968;28;19922;-62
2023/01/17 03:21:17;;;;;;;;;;;;;;;0.94;100.00;98567.66;5069242;28;20370;-61
2023/01/17 03:23:43;;;;;;;;;;;;;;;0.77;100.00;98575.53;5061758;28;19928;-62
2023/01/17 03:26:08;;;;;;;;;;;;;;;0.76;100.00;98575.72;5068735;28;19923;-62
2023/01/17 03:28:33;;;;;;;;;;;;;;;0.74;100.00;98580.53;5068485;28;19927;-62
2023/01/17 03:30:58;;;;;;;;;;;;;;;0.73;100.00;98584.28;5068617;28;19916;-60
2023/01/17 03:33:24;;;;;;;;;;;;;;;0.92;100.00;98579.75;5068901;28;19935;-60
2023/01/17 03:35:49;;;;;;;;;;;;;;;0.84;100.00;98588.13;5066798;28;19963;-61
2023/01/17 03:38:14;;;;;;;;;;;;;;;0.58;100.00;98591.91;5067709;28;19959;-61
2023/01/17 03:40:40;;;;;;;;;;;;;;;0.60;100.00;98587.09;5068485;28;19947;-61
2023/01/17 03:43:05;;;;;;;;;;;;;;;0.51;100.00;98579.31;5068887;28;19927;-60
2023/01/17 03:45:30;;;;;;;;;;;;;;;0.56;100.00;98586.75;5067314;28;20397;-59
2023/01/17 03:47:56;;;;;;;;;;;;;;;0.56;100.00;98580.50;5068062;28;19927;-62
2023/01/17 03:50:21;;;;;;;;;;;;;;;0.58;100.00;98578.41;5067561;28;19920;-61
2023/01/17 03:52:47;;;;;;;;;;;;;;;0.54;100.00;98583.41;5067618;28;20252;-60
2023/01/17 03:55:12;;;;;;;;;;;;;;;0.57;100.00;98587.56;5067440;28;19916;-60
2023/01/17 03:57:37;;;;;;;;;;;;;;;0.71;100.00;98580.97;5068416;28;19916;-63
2023/01/17 04:00:03;;;;;;;;;;;;;;;0.60;100.00;98593.34;5067788;28;19956;-60
2023/01/17 04:02:28;;;;;;;;;;;;;;;0.60;100.00;98587.94;5068078;28;20386;-60
2023/01/17 04:04:53;;;;;;;;;;;;;;;0.61;100.00;98599.56;5066506;28;19963;-62
2023/01/17 04:07:19;;;;;;;;;;;;;;;0.59;100.00;98596.25;5067948;28;19920;-60
2023/01/17 04:09:44;;;;;;;;;;;;;;;0.66;100.00;98603.28;5066955;28;19967;-61
2023/01/17 04:12:09;;;;;;;;;;;;;;;0.60;100.00;98595.22;5067943;28;19924;-60
2023/01/17 04:14:34;;;;;;;;;;;;;;;0.64;100.00;98597.25;5066547;28;19920;-62
2023/01/17 04:17:02;;;;;;;;;;;;;;;0.75;100.00;98598.41;5067137;28;20216;-62
2023/01/17 04:19:28;;;;;;;;;;;;;;;0.53;100.00;98597.97;5067715;28;19920;-61
2023/01/17 04:21:54;;;;;;;;;;;;;;;0.54;100.00;98599.63;5067086;28;19917;-60
2023/01/17 04:24:19;;;;;;;;;;;;;;;0.50;100.00;98601.13;5066688;28;20263;-60
2023/01/17 04:26:44;;;;;;;;;;;;;;;0.44;100.00;98604.69;5067475;28;19916;-60
2023/01/17 04:29:09;;;;;;;;;;;;;;;0.43;100.00;98606.56;5066497;28;19993;-60
2023/01/17 04:31:34;;;;;;;;;;;;;;;0.43;100.00;98598.47;5068291;28;19916;-61
2023/01/17 04:34:00;;;;;;;;;;;;;;;0.39;100.00;98596.44;5066663;28;19927;-60
2023/01/17 04:36:25;;;;;;;;;;;;;;;0.37;100.00;98593.97;5067664;28;19916;-60
2023/01/17 04:38:50;;;;;;;;;;;;;;;0.51;100.00;98594.69;5066509;28;19958;-62
2023/01/17 04:41:15;;;;;;;;;;;;;;;0.35;100.00;98581.72;5060276;28;19916;-61
2023/01/17 04:43:40;;;;;;;;;;;;;;;0.63;100.00;98592.91;5058794;28;20259;-61
2023/01/17 04:46:08;;;;;;;;;;;;;;;0.34;100.00;98594.38;5066947;28;19927;-60
2023/01/17 04:48:34;;;;;;;;;;;;;;;0.29;100.00;98596.91;5065045;28;19977;-60
2023/01/17 04:50:59;;;;;;;;;;;;;;;0.28;100.00;98597.16;5061572;28;19928;-60
2023/01/17 04:53:25;;;;;;;;;;;;;;;0.35;100.00;98596.03;5067051;28;19970;-62
2023/01/17 04:55:50;;;;;;;;;;;;;;;0.28;100.00;98602.56;5067202;28;20286;-62
2023/01/17 04:58:15;;;;;;;;;;;;;;;0.30;100.00;98603.97;5066268;28;20286;-60
2023/01/17 05:00:40;;;;;;;;;;;;;;;0.29;100.00;98602.31;5065829;28;19916;-61
2023/01/17 05:03:06;;;;;;;;;;;;;;;0.21;100.00;98605.31;5066312;28;19923;-60
2023/01/17 05:05:31;;;;;;;;;;;;;;;0.19;100.00;98600.09;5066116;28;20270;-61
2023/01/17 05:07:57;;;;;;;;;;;;;;;0.16;100.00;98603.25;5067001;28;20094;-60
2023/01/17 05:10:22;;;;;;;;;;;;;;;0.21;100.00;98605.31;5066605;28;20335;-60
2023/01/17 05:12:54;;;;;;;;;;;;;;;0.13;100.00;98609.09;5065211;28;20696;-60
2023/01/17 05:15:19;;;;;;;;;;;;;;;0.09;100.00;98602.47;5067201;28;19916;-60
2023/01/17 05:17:44;;;;;;;;;;;;;;;0.10;100.00;98603.28;5066896;28;20421;-61
2023/01/17 05:20:10;;;;;;;;;;;;;;;0.05;100.00;98605.81;5066770;28;19920;-61
2023/01/17 05:22:35;;;;;;;;;;;;;;;0.04;100.00;98609.56;5066021;28;19943;-60
2023/01/17 05:25:00;;;;;;;;;;;;;;;0.23;100.00;98609.44;5065394;28;19916;-60
2023/01/17 05:27:26;;;;;;;;;;;;;;;0.03;100.00;98614.13;5066840;28;19970;-60
2023/01/17 05:29:51;;;;;;;;;;;;;;;0.28;100.00;98616.03;5065458;28;19912;-60
2023/01/17 05:32:16;;;;;;;;;;;;;;;0.07;100.00;98611.84;5065154;28;20007;-60
2023/01/17 05:34:41;;;;;;;;;;;;;;;-0.02;100.00;98613.97;5066352;28;19919;-60
2023/01/17 05:37:06;;;;;;;;;;;;;;;-0.07;100.00;98606.53;5066734;28;19999;-61
2023/01/17 05:39:32;;;;;;;;;;;;;;;-0.02;100.00;98616.66;5066871;28;19916;-61
2023/01/17 05:41:58;;;;;;;;;;;;;;;-0.09;100.00;98614.00;5064893;28;20563;-60
2023/01/17 05:44:23;;;;;;;;;;;;;;;-0.08;100.00;98617.53;5065841;28;20439;-62
2023/01/17 05:46:48;;;;;;;;;;;;;;;-0.04;100.00;98624.16;5066627;28;20355;-60
2023/01/17 05:49:13;;;;;;;;;;;;;;;-0.08;100.00;98620.22;5066288;28;19916;-62
2023/01/17 05:51:38;;;;;;;;;;;;;;;-0.05;100.00;98627.88;5065394;28;20371;-61
2023/01/17 05:54:04;;;;;;;;;;;;;;;0.04;100.00;98620.34;5062948;28;19921;-60
2023/01/17 05:56:29;;;;;;;;;;;;;;;-0.08;100.00;98625.63;5065123;28;20378;-60
2023/01/17 05:58:54;;;;;;;;;;;;;;;-0.11;100.00;98626.06;5065240;28;20014;-60
2023/01/17 06:01:19;;;;;;;;;;;;;;;-0.10;100.00;98628.56;5064496;28;19921;-63
2023/01/17 06:03:44;;;;;;;;;;;;;;;-0.13;100.00;98628.97;5065010;28;20027;-62
2023/01/17 06:06:10;;;;;;;;;;;;;;;-0.12;100.00;98637.88;5065626;28;20326;-60
2023/01/17 06:08:35;;;;;;;;;;;;;;;-0.11;100.00;98634.16;5066355;28;19916;-60
2023/01/17 06:11:00;;;;;;;;;;;;;;;-0.15;100.00;98633.78;5065412;28;19920;-61
2023/01/17 06:13:25;;;;;;;;;;;;;;;-0.20;100.00;98636.28;5064616;28;19924;-61
2023/01/17 06:15:50;;;;;;;;;;;;;;;-0.18;100.00;98641.47;5066177;28;19970;-61
2023/01/17 06:18:16;;;;;;;;;;;;;;;-0.25;100.00;98638.81;5064945;28;20039;-60
2023/01/17 06:20:41;;;;;;;;;;;;;;;-0.26;100.00;98637.94;5066144;28;19917;-61
2023/01/17 06:23:09;;;;;;;;;;;;;;;-0.28;100.00;98644.63;5065086;28;19916;-60
2023/01/17 06:25:35;;;;;;;;;;;;;;;-0.31;100.00;98653.94;5065371;28;19943;-60
2023/01/17 06:28:01;;;;;;;;;;;;;;;-0.23;100.00;98642.09;5063980;28;19917;-60
2023/01/17 06:30:26;;;;;;;;;;;;;;;-0.31;100.00;98639.63;5064270;28;19970;-63
2023/01/17 06:32:54;;;;;;;;;;;;;;;-0.36;100.00;98645.69;5064076;28;20015;-62
2023/01/17 06:35:20;;;;;;;;;;;;;;;-0.35;100.00;98654.63;5065864;28;19920;-60
2023/01/17 06:37:49;;;;;;;;;;;;;;;-0.38;100.00;98653.16;5065159;28;19945;-60
2023/01/17 06:40:14;;;;;;;;;;;;;;;-0.43;100.00;98652.97;5065790;28;19917;-62
2023/01/17 06:42:39;;;;;;;;;;;;;;;-0.43;100.00;98646.75;5064194;28;20286;-60
2023/01/17 06:45:04;;;;;;;;;;;;;;;-0.43;100.00;98658.38;5068992;28;19969;-60
2023/01/17 06:47:30;;;;;;;;;;;;;;;-0.46;100.00;98663.34;5069023;28;20023;-60
2023/01/17 06:49:55;;;;;;;;;;;;;;;-0.49;100.00;98658.41;5069395;28;19916;-61
2023/01/17 06:52:20;;;;;;;;;;;;;;;-0.50;100.00;98656.75;5068046;28;19927;-62
2023/01/17 06:54:45;;;;;;;;;;;;;;;-0.45;100.00;98659.63;5069245;28;20324;-61
2023/01/17 06:57:10;;;;;;;;;;;;;;;-0.53;100.00;98648.03;5069807;28;19926;-60
2023/01/17 06:59:35;;;;;;;;;;;;;;;-0.47;100.00;98650.91;5065998;28;19938;-61
2023/01/17 07:02:01;;;;;;;;;;;;;;;-0.54;100.00;98659.03;5069026;28;19943;-62
2023/01/17 07:04:26;;;;;;;;;;;;;;;-0.50;100.00;98656.75;5067552;28;20559;-62
2023/01/17 07:06:51;;;;;;;;;;;;;;;-0.40;100.00;98663.34;5066206;28;19925;-61
2023/01/17 07:09:16;;;;;;;;;;;;;;;-0.54;100.00;98656.34;5068144;28;19920;-61
2023/01/17 07:11:44;;;;;;;;;;;;;;;-0.55;100.00;98660.09;5059829;28;20543;-60
2023/01/17 07:14:12;;;;;;;;;;;;;;;-0.67;100.00;98653.69;5068452;28;19923;-59
2023/01/17 07:16:37;;;;;;;;;;;;;;;-0.67;100.00;98664.47;5067328;28;20027;-61
2023/01/17 07:19:02;;;;;;;;;;;;;;;-0.69;100.00;98659.28;5069625;28;20043;-60
2023/01/17 07:21:28;;;;;;;;;;;;;;;-0.61;100.00;98650.97;5069264;28;19947;-62
2023/01/17 07:23:53;;;;;;;;;;;;;;;-0.70;100.00;98662.22;5067440;28;20286;-61
2023/01/17 07:26:18;;;;;;;;;;;;;;;-0.73;100.00;98659.94;5069017;28;19970;-62
2023/01/17 07:28:43;;;;;;;;;;;;;;;-0.76;100.00;98668.41;5066397;28;19920;-61
2023/01/17 07:31:09;;;;;;;;;;;;;;;-0.78;100.00;98671.34;5068275;28;19955;-61
2023/01/17 07:33:34;;;;;;;;;;;;;;;-0.66;100.00;98676.91;5069267;28;20411;-62
2023/01/17 07:36:04;;;;;;;;;;;;;;;-0.75;100.00;98680.88;5068607;28;19916;-61
2023/01/17 07:38:29;;;;;;;;;;;;;;;-0.81;100.00;98677.16;5067145;28;20298;-60
2023/01/17 07:40:57;;;;;;;;;;;;;;;-0.82;100.00;98678.19;5065635;28;19920;-62
2023/01/17 07:43:22;;;;;;;;;;;;;;;-0.79;100.00;98680.47;5066496;28;19998;-60
2023/01/17 07:45:49;;;;;;;;;;;;;;;-0.82;100.00;98686.25;5068726;28;19912;-61
2023/01/17 07:48:15;;;;;;;;;;;;;;;-0.79;100.00;98683.16;5068637;28;20382;-61
2023/01/17 07:50:40;;;;;;;;;;;;;;;-0.73;100.00;98690.41;5068095;28;19917;-60
2023/01/17 07:53:05;;;;;;;;;;;;;;;-0.74;100.00;98690.63;5067561;28;20062;-60
2023/01/17 07:55:30;;;;;;;;;;;;;;;-0.72;100.00;98688.53;5067339;28;20003;-61
2023/01/17 07:57:56;;;;;;;;;;;;;;;-0.74;100.00;98694.13;5064977;28;19924;-61
2023/01/17 08:00:27;;;;;;;;;;;;;;;-0.66;100.00;98696.63;5061696;28;20063;-61
2023/01/17 08:02:57;;;;;;;;;;;;;;;-0.62;100.00;98697.00;5046487;28;19928;-62
2023/01/17 08:05:22;;;;;;;;;;;;;;;-0.48;100.00;98689.72;5046108;28;19921;-61
2023/01/17 08:07:47;;;;;;;;;;;;;;;-0.28;100.00;98694.00;5050632;28;19924;-62
2023/01/17 08:10:16;;;;;;;;;;;;;;;0.04;100.00;98691.34;5051554;28;19992;-61
2023/01/17 08:12:41;;;;;;;;;;;;;;;0.20;100.00;98692.72;5041066;28;19969;-62
2023/01/17 08:15:07;;;;;;;;;;;;;;;0.24;100.00;98688.53;5052257;28;19928;-62
2023/01/17 08:17:33;;;;;;;;;;;;;;;0.31;100.00;98694.75;5052278;28;19925;-60
2023/01/17 08:19:58;;;;;;;;;;;;;;;0.46;100.00;98691.75;5048998;28;20652;-60
2023/01/17 08:22:23;;;;;;;;;;;;;;;0.74;100.00;98694.81;5051857;28;19929;-60
2023/01/17 08:24:48;;;;;;;;;;;;;;;1.06;100.00;98688.53;5051813;28;19924;-61
2023/01/17 08:27:14;;;;;;;;;;;;;;;1.21;100.00;98694.41;5048090;28;19972;-62
2023/01/17 08:29:45;;;;;;;;;;;;;;;1.10;100.00;98693.28;5056569;28;19955;-62
2023/01/17 08:32:10;;;;;;;;;;;;;;;1.02;100.00;98697.09;5046894;28;19943;-62
2023/01/17 08:34:36;;;;;;;;;;;;;;;1.06;100.00;98689.34;5049776;28;19921;-62
2023/01/17 08:37:01;;;;;;;;;;;;;;;1.04;100.00;98695.00;5071126;28;19925;-63
2023/01/17 08:39:26;;;;;;;;;;;;;;;1.11;100.00;98696.78;5058342;28;19924;-63
2023/01/17 08:41:52;;;;;;;;;;;;;;;1.38;100.00;98698.22;5060181;28;19932;-62
2023/01/17 08:44:18;;;;;;;;;;;;;;;1.75;100.00;98690.09;5065700;28;19974;-60
2023/01/17 08:46:44;;;;;;;;;;;;;;;2.25;100.00;98697.97;5057169;28;20334;-62
2023/01/17 08:49:09;;;;;;;;;;;;;;;2.53;100.00;98695.47;5067942;28;19920;-60
2023/01/17 08:51:34;;;;;;;;;;;;;;;2.40;100.00;98694.88;5066017;28;19927;-61
2023/01/17 08:53:59;;;;;;;;;;;;;;;2.38;100.00;98697.78;5047212;28;19931;-62
2023/01/17 08:56:26;;;;;;;;;;;;;;;2.49;100.00;98701.59;5049889;28;20011;-60
2023/01/17 08:58:51;;;;;;;;;;;;;;;2.60;100.00;98695.38;5051168;28;19921;-62
2023/01/17 09:01:16;;;;;;;;;;;;;;;2.66;100.00;98704.47;5049289;28;19970;-62
2023/01/17 09:03:42;;;;;;;;;;;;;;;2.53;100.00;98702.78;5045846;28;20371;-62
2023/01/17 09:06:11;;;;;;;;;;;;;;;2.23;100.00;98700.06;5050148;28;19920;-63
2023/01/17 09:08:37;;;;;;;;;;;;;;;2.05;100.00;98709.91;5054456;28;19969;-62
2023/01/17 09:11:06;;;;;;;;;;;;;;;1.90;100.00;98709.47;5051723;28;19921;-60
2023/01/17 09:13:31;;;;;;;;;;;;;;;1.84;100.00;98713.09;5048448;28;19966;-63
2023/01/17 09:15:57;;;;;;;;;;;;;;;1.85;100.00;98720.16;5047439;28;20531;-62
2023/01/17 09:18:23;;;;;;;;;;;;;;;1.83;100.00;98724.97;5056126;28;19927;-59
2023/01/17 09:20:48;;;;;;;;;;;;;;;1.94;100.00;98718.78;5059966;28;19920;-63
2023/01/17 09:23:13;;;;;;;;;;;;;;;2.54;100.00;98721.53;5056932;28;19920;-59
2023/01/17 09:25:43;;;;;;;;;;;;;;;2.92;100.00;98720.31;5067567;28;20322;-59
2023/01/17 09:28:08;;;;;;;;;;;;;;;3.12;100.00;98720.81;5066096;28;19916;-61
2023/01/17 09:30:33;;;;;;;;;;;;;;;3.39;100.00;98720.34;5067557;28;19987;-60
2023/01/17 09:32:58;;;;;;;;;;;;;;;3.74;99.72;98724.91;5065434;28;19920;-59
2023/01/17 09:35:24;;;;;;;;;;;;;;;3.88;99.15;98721.69;5067569;28;19928;-61
2023/01/17 09:37:50;;;;;;;;;;;;;;;3.95;97.53;98724.28;5067394;28;20367;-59
2023/01/17 09:40:19;;;;;;;;;;;;;;;3.83;97.89;98726.19;5064493;28;19917;-60
2023/01/17 09:42:46;;;;;;;;;;;;;;;3.59;98.16;98726.22;5063496;28;19921;-59
2023/01/17 09:45:15;;;;;;;;;;;;;;;3.62;98.27;98723.03;5065605;28;20307;-61
2023/01/17 09:47:45;;;;;;;;;;;;;;;3.64;98.55;98728.22;5064545;28;20367;-60
2023/01/17 09:50:19;;;;;;;;;;;;;;;3.77;98.66;98733.41;5067294;28;19916;-61
2023/01/17 09:52:44;;;;;;;;;;;;;;;3.76;98.92;98731.78;5060427;28;20011;-59
2023/01/17 09:55:16;;;;;;;;;;;;;;;4.34;99.34;98721.81;5067345;28;19917;-61
2023/01/17 09:57:55;;;;;;;;;;;;;;;4.64;98.08;98729.72;5065746;28;19917;-60
2023/01/17 10:00:32;;;;;;;;;;;;;;;4.51;97.59;98732.72;5066070;28;19916;-61
2023/01/17 10:03:12;;;;;;;;;;;;;;;4.42;97.41;98735.00;5064576;28;19924;-61
2023/01/17 10:05:49;;;;;;;;;;;;;;;4.54;94.97;98737.69;5066935;28;19920;-62
2023/01/17 10:08:27;;;;;;;;;;;;;;;5.20;96.46;98739.66;5064711;28;19920;-60
2023/01/17 10:11:07;;;;;;;;;;;;;;;5.21;94.96;98738.56;5055015;28;19921;-61
2023/01/17 10:13:38;;;;;;;;;;;;;;;5.04;94.35;98745.09;5046456;28;20010;-60
2023/01/17 10:16:23;;;;;;;;;;;;;;;4.98;95.59;98743.38;5048675;28;19931;-61
2023/01/17 10:19:07;;;;;;;;;;;;;;;4.95;94.97;98748.22;5058355;28;19924;-60
2023/01/17 10:21:39;;;;;;;;;;;;;;;4.92;94.17;98739.75;5050510;28;20015;-60
2023/01/17 10:24:15;;;;;;;;;;;;;;;4.71;93.64;98740.41;5061160;28;19968;-62
2023/01/17 10:26:41;;;;;;;;;;;;;;;5.19;95.29;98738.00;5050738;28;20062;-60
2023/01/17 10:29:12;;;;;;;;;;;;;;;6.82;93.99;98725.69;5055574;28;19924;-60
2023/01/17 10:31:42;;;;;;;;;;;;;;;7.07;88.37;98721.56;5053893;28;19928;-63
2023/01/17 10:34:26;;;;;;;;;;;;;;;7.35;87.59;98723.97;5052359;28;20278;-66
2023/01/17 10:36:55;;;;;;;;;;;;;;;8.07;86.68;98723.31;5049691;28;20336;-62
2023/01/17 10:39:24;;;;;;;;;;;;;;;8.76;79.69;98722.19;5046505;28;19939;-60
2023/01/17 10:41:54;;;;;;;;;;;;;;;9.54;75.84;98726.59;5057285;28;20119;-61
2023/01/17 10:44:38;;;;;;;;;;;;;;;11.60;77.39;98715.91;5051950;28;20030;-61
2023/01/17 10:47:11;;;;;;;;;;;;;;;13.44;74.84;98721.81;5050248;28;19923;-61
2023/01/17 10:49:44;;;;;;;;;;;;;;;14.11;62.33;98732.47;5061043;28;19925;-60
2023/01/17 10:52:17;;;;;;;;;;;;;;;13.98;67.44;98731.31;5049210;28;19928;-61
2023/01/17 10:54:43;;;;;;;;;;;;;;;14.29;63.47;98728.78;5050721;28;20007;-60
2023/01/17 10:57:13;;;;;;;;;;;;;;;14.79;66.55;98737.16;5050223;28;20287;-60
2023/01/17 10:59:38;;;;;;;;;;;;;;;15.16;58.27;98732.47;5060333;28;19921;-59
2023/01/17 11:02:14;;;;;;;;;;;;;;;15.86;60.48;98734.59;5068907;28;19924;-61
2023/01/17 11:04:40;;;;;;;;;;;;;;;16.15;57.76;98731.31;5069282;28;19920;-60
2023/01/17 11:07:12;;;;;;;;;;;;;;;14.92;54.92;98735.50;5070590;28;19916;-60
2023/01/17 11:09:38;;;;;;;;;;;;;;;13.57;59.52;98732.06;5069009;28;19920;-64
2023/01/17 11:12:03;;;;;;;;;;;;;;;12.50;63.37;98730.88;5066494;28;20015;-60
2023/01/17 11:14:29;;;;;;;;;;;;;;;12.73;64.42;98719.03;5068025;28;20473;-60
2023/01/17 11:16:58;;;;;;;;;;;;;;;13.54;59.73;98724.41;5068126;28;19920;-61
2023/01/17 11:19:31;;;;;;;;;;;;;;;13.69;58.92;98715.06;5063163;28;20411;-60
2023/01/17 11:22:01;;;;;;;;;;;;;;;13.30;61.33;98716.25;5069643;28;19959;-60
2023/01/17 11:24:34;;;;;;;;;;;;;;;13.05;61.33;98720.19;5068614;28;19924;-61
2023/01/17 11:27:01;;;;;;;;;;;;;;;12.02;64.46;98716.34;5063806;28;19921;-59
2023/01/17 11:29:27;;;;;;;;;;;;;;;11.02;67.70;98720.53;5053924;28;20294;-61
2023/01/17 11:31:52;;;;;;;;;;;;;;;10.80;68.67;98716.28;5065824;28;19920;-60
2023/01/17 11:34:22;;;;;;;;;;;;;;;10.61;69.46;98724.34;5069712;28;19963;-61
2023/01/17 11:36:48;;;;;;;;;;;;;;;10.20;67.57;98725.63;5069420;28;20370;-60
2023/01/17 11:39:16;;;;;;;;;;;;;;;9.38;70.97;98720.31;5066415;28;20040;-63
2023/01/17 11:41:42;;;;;;;;;;;;;;;8.90;70.65;98721.66;5066332;28;19924;-61
2023/01/17 11:44:21;;;;;;;;;;;;;;;9.49;71.78;98721.13;5068378;28;20275;-62
2023/01/17 11:46:47;;;;;;;;;;;;;;;11.29;65.89;98706.31;5065177;28;20004;-60
2023/01/17 11:49:23;;;;;;;;;;;;;;;12.50;63.21;98708.06;5068414;28;20031;-60
2023/01/17 11:51:49;;;;;;;;;;;;;;;12.37;60.42;98715.13;5068226;28;19920;-60
2023/01/17 11:54:17;;;;;;;;;;;;;;;12.16;61.99;98711.75;5060465;28;19948;-59
2023/01/17 11:56:45;;;;;;;;;;;;;;;11.85;62.23;98709.34;5048372;28;19917;-60
2023/01/17 11:59:25;;;;;;;;;;;;;;;11.01;61.96;98713.41;5048850;28;19917;-62
2023/01/17 12:01:51;;;;;;;;;;;;;;;10.52;65.67;98715.06;5064840;28;19922;-61
2023/01/17 12:04:23;;;;;;;;;;;;;;;10.25;65.56;98717.41;5067289;28;20277;-59
2023/01/17 12:07:01;;;;;;;;;;;;;;;10.94;64.73;98701.91;5051155;28;20249;-61
2023/01/17 12:09:35;;;;;;;;;;;;;;;12.32;63.17;98702.22;5061624;28;19920;-60
2023/01/17 12:15:07;;;;;;;;;;;;;;;14.54;53.42;98703.44;5049948;28;19924;-59
2023/01/17 12:17:41;;;;;;;;;;;;;;;14.15;55.15;98703.16;5065345;28;20023;-61
2023/01/17 12:20:25;;;;;;;;;;;;;;;14.20;57.45;98712.13;5057489;28;19958;-61
2023/01/17 12:22:53;;;;;;;;;;;;;;;15.32;53.99;98700.53;5059174;28;19939;-60
2023/01/17 12:25:23;;;;;;;;;;;;;;;15.78;53.45;98700.22;5054274;28;19956;-60
2023/01/17 12:28:21;;;;;;;;;;;;;;;16.08;51.04;98697.75;5049464;28;20888;-61
2023/01/17 12:30:55;;;;;;;;;;;;;;;16.48;49.26;98690.22;5039619;28;19928;-60
2023/01/17 12:33:32;;;;;;;;;;;;;;;16.56;46.88;98694.13;5062130;28;19920;-60
2023/01/17 12:36:02;;;;;;;;;;;;;;;16.78;46.79;98693.25;5054005;28;19925;-61
2023/01/17 12:38:33;;;;;;;;;;;;;;;16.28;43.72;98686.09;5058729;28;20074;-60
2023/01/17 12:40:59;;;;;;;;;;;;;;;16.17;40.25;98684.75;5052692;28;20006;-60
2023/01/17 12:43:27;;;;;;;;;;;;;;;15.91;48.05;98686.59;5060776;28;20058;-60
2023/01/17 12:45:53;;;;;;;;;;;;;;;16.51;47.32;98684.00;5057421;28;20406;-63
2023/01/17 12:48:19;;;;;;;;;;;;;;;16.81;44.92;98682.31;5048888;28;19920;-61
2023/01/17 12:51:03;;;;;;;;;;;;;;;16.46;44.38;98686.13;5050824;28;20383;-60
2023/01/17 12:53:47;;;;;;;;;;;;;;;16.57;44.88;98681.91;5054107;28;20315;-60
2023/01/17 12:56:23;;;;;;;;;;;;;;;16.32;42.90;98675.16;5048955;28;19924;-62
2023/01/17 12:58:55;;;;;;;;;;;;;;;16.17;44.08;98681.16;5052326;28;19916;-62
2023/01/17 13:01:22;;;;;;;;;;;;;;;15.51;46.39;98686.50;5054238;28;19924;-62
2023/01/17 13:04:06;;;;;;;;;;;;;;;13.75;48.04;98695.34;5051098;28;19924;-60
2023/01/17 13:06:39;;;;;;;;;;;;;;;11.76;52.08;98694.59;5054662;28;19947;-60
2023/01/17 13:09:08;;;;;;;;;;;;;;;10.16;56.16;98697.09;5050976;28;20519;-61
2023/01/17 13:11:42;;;;;;;;;;;;;;;9.12;59.03;98691.28;5048401;28;19920;-62
2023/01/17 13:14:08;;;;;;;;;;;;;;;8.33;62.15;98694.16;5051797;28;20280;-60
2023/01/17 13:16:39;;;;;;;;;;;;;;;7.83;66.05;98691.22;5050972;28;19932;-60
2023/01/17 13:19:31;;;;;;;;;;;;;;;7.29;64.14;98694.97;5045095;28;20324;-61
2023/01/17 13:21:57;;;;;;;;;;;;;;;6.85;68.44;98697.91;5032071;28;20772;-60
2023/01/17 13:24:43;;;;;;;;;;;;;;;6.40;65.37;98698.28;5049211;28;19928;-59
2023/01/17 13:27:11;;;;;;;;;;;;;;;6.03;69.65;98700.81;5052882;28;19932;-61
2023/01/17 13:29:42;;;;;;;;;;;;;;;5.93;70.79;98698.78;5058109;28;19978;-60
2023/01/17 13:32:19;;;;;;;;;;;;;;;5.81;66.15;98695.34;5054719;28;19927;-63
2023/01/17 13:34:53;;;;;;;;;;;;;;;5.72;71.69;98703.13;5061098;28;20027;-59
2023/01/17 13:37:38;;;;;;;;;;;;;;;5.74;73.60;98706.44;5047367;28;19929;-61
2023/01/17 13:40:29;;;;;;;;;;;;;;;5.64;71.85;98707.09;5048512;28;19925;-60
2023/01/17 13:42:56;;;;;;;;;;;;;;;5.62;72.90;98698.34;5045193;28;20019;-62
2023/01/17 13:45:26;;;;;;;;;;;;;;;5.59;71.83;98700.78;5044670;28;19921;-61
2023/01/17 13:47:52;;;;;;;;;;;;;;;5.62;71.48;98698.34;5052242;28;19928;-60
2023/01/17 13:50:36;;;;;;;;;;;;;;;5.64;71.08;98701.66;5056343;28;19921;-60
2023/01/17 13:53:20;;;;;;;;;;;;;;;5.68;72.22;98694.66;5054781;28;20074;-60
2023/01/17 13:55:49;;;;;;;;;;;;;;;5.64;71.97;98700.84;5054225;28;20286;-60
2023/01/17 13:58:28;;;;;;;;;;;;;;;5.62;72.74;98705.69;5063940;28;20335;-59
2023/01/17 14:00:53;;;;;;;;;;;;;;;5.59;72.70;98708.94;5063452;28;19934;-60
2023/01/17 14:03:38;;;;;;;;;;;;;;;5.54;73.59;98709.69;5052351;28;19925;-59
2023/01/17 14:06:23;;;;;;;;;;;;;;;5.45;73.21;98725.63;5048463;28;20389;-62
2023/01/17 14:08:49;;;;;;;;;;;;;;;5.45;72.65;98716.63;5047128;28;19967;-60
2023/01/17 14:11:15;;;;;;;;;;;;;;;5.31;68.79;98720.75;5049219;28;19964;-60
2023/01/17 14:13:40;;;;;;;;;;;;;;;5.13;70.49;98714.50;5061064;28;19928;-59